sensor_id;sensor_type;location;lat;lon;timestamp;P1;durP1;ratioP1;P2;durP2;ratioP2
53010;SDS011;42803;55.762;38.084;2022-08-25T00:00:18;296.30;;;128.25;;
53010;SDS011;42803;55.762;38.084;2022-08-25T00:02:49;282.33;;;132.98;;
53010;SDS011;42803;55.762;38.084;2022-08-25T00:05:23;286.30;;;132.55;;
53010;SDS011;42803;55.762;38.084;2022-08-25T00:08:01;260.35;;;126.72;;
53010;SDS011;42803;55.762;38.084;2022-08-25T00:10:33;380.42;;;175.98;;
53010;SDS011;42803;55.762;38.084;2022-08-25T00:13:03;374.73;;;180.52;;
53010;SDS011;42803;55.762;38.084;2022-08-25T00:15:33;477.15;;;243.32;;
53010;SDS011;42803;55.762;38.084;2022-08-25T00:18:03;479.33;;;241.75;;
53010;SDS011;42803;55.762;38.084;2022-08-25T00:20:45;466.92;;;240.48;;
53010;SDS011;42803;55.762;38.084;2022-08-25T00:23:16;504.00;;;254.68;;
53010;SDS011;42803;55.762;38.084;2022-08-25T00:25:45;476.30;;;243.65;;
53010;SDS011;42803;55.762;38.084;2022-08-25T00:28:15;477.98;;;243.77;;
53010;SDS011;42803;55.762;38.084;2022-08-25T00:30:44;475.77;;;241.10;;
53010;SDS011;42803;55.762;38.084;2022-08-25T00:33:15;472.45;;;240.50;;
53010;SDS011;42803;55.762;38.084;2022-08-25T00:35:44;480.90;;;245.65;;
53010;SDS011;42803;55.762;38.084;2022-08-25T00:38:13;484.95;;;248.40;;
53010;SDS011;42803;55.762;38.084;2022-08-25T00:40:44;494.80;;;249.57;;
53010;SDS011;42803;55.762;38.084;2022-08-25T00:43:33;489.63;;;249.68;;
53010;SDS011;42803;55.762;38.084;2022-08-25T00:46:04;470.98;;;235.52;;
53010;SDS011;42803;55.762;38.084;2022-08-25T00:48:34;485.70;;;251.68;;
53010;SDS011;42803;55.762;38.084;2022-08-25T00:51:03;427.13;;;201.63;;
53010;SDS011;42803;55.762;38.084;2022-08-25T00:53:35;475.90;;;226.32;;
53010;SDS011;42803;55.762;38.084;2022-08-25T00:56:07;254.45;;;118.10;;
53010;SDS011;42803;55.762;38.084;2022-08-25T00:58:37;167.45;;;75.93;;
53010;SDS011;42803;55.762;38.084;2022-08-25T01:01:08;265.58;;;120.53;;
53010;SDS011;42803;55.762;38.084;2022-08-25T01:03:38;255.15;;;113.50;;
53010;SDS011;42803;55.762;38.084;2022-08-25T01:06:07;358.98;;;166.48;;
53010;SDS011;42803;55.762;38.084;2022-08-25T01:08:38;461.10;;;224.05;;
53010;SDS011;42803;55.762;38.084;2022-08-25T01:11:08;370.58;;;171.25;;
53010;SDS011;42803;55.762;38.084;2022-08-25T01:13:39;366.05;;;175.02;;
53010;SDS011;42803;55.762;38.084;2022-08-25T01:16:11;315.40;;;141.57;;
53010;SDS011;42803;55.762;38.084;2022-08-25T01:18:42;219.10;;;99.88;;
53010;SDS011;42803;55.762;38.084;2022-08-25T01:21:17;285.55;;;133.55;;
53010;SDS011;42803;55.762;38.084;2022-08-25T01:23:48;345.58;;;158.40;;
53010;SDS011;42803;55.762;38.084;2022-08-25T01:26:20;304.13;;;142.23;;
53010;SDS011;42803;55.762;38.084;2022-08-25T01:28:57;316.42;;;139.23;;
53010;SDS011;42803;55.762;38.084;2022-08-25T01:31:46;283.55;;;128.75;;
53010;SDS011;42803;55.762;38.084;2022-08-25T01:34:15;303.55;;;134.43;;
53010;SDS011;42803;55.762;38.084;2022-08-25T01:36:47;298.23;;;135.75;;
53010;SDS011;42803;55.762;38.084;2022-08-25T01:39:16;370.45;;;170.32;;
53010;SDS011;42803;55.762;38.084;2022-08-25T01:41:49;234.77;;;109.40;;
53010;SDS011;42803;55.762;38.084;2022-08-25T01:44:26;275.63;;;126.32;;
53010;SDS011;42803;55.762;38.084;2022-08-25T01:46:55;228.68;;;105.68;;
53010;SDS011;42803;55.762;38.084;2022-08-25T01:49:24;346.58;;;162.68;;
53010;SDS011;42803;55.762;38.084;2022-08-25T01:52:05;326.85;;;152.38;;
53010;SDS011;42803;55.762;38.084;2022-08-25T01:54:38;314.20;;;145.98;;
53010;SDS011;42803;55.762;38.084;2022-08-25T01:57:07;345.92;;;163.00;;
53010;SDS011;42803;55.762;38.084;2022-08-25T01:59:36;326.60;;;146.02;;
53010;SDS011;42803;55.762;38.084;2022-08-25T02:02:06;285.80;;;127.53;;
53010;SDS011;42803;55.762;38.084;2022-08-25T02:04:36;240.10;;;111.57;;
53010;SDS011;42803;55.762;38.084;2022-08-25T02:07:12;276.80;;;127.80;;
53010;SDS011;42803;55.762;38.084;2022-08-25T02:09:41;308.67;;;143.90;;
53010;SDS011;42803;55.762;38.084;2022-08-25T02:12:10;355.48;;;167.68;;
53010;SDS011;42803;55.762;38.084;2022-08-25T02:14:59;347.38;;;165.13;;
53010;SDS011;42803;55.762;38.084;2022-08-25T02:17:28;320.98;;;155.55;;
53010;SDS011;42803;55.762;38.084;2022-08-25T02:19:57;311.42;;;143.38;;
53010;SDS011;42803;55.762;38.084;2022-08-25T02:22:28;264.52;;;125.53;;
53010;SDS011;42803;55.762;38.084;2022-08-25T02:24:57;269.23;;;118.53;;
53010;SDS011;42803;55.762;38.084;2022-08-25T02:27:26;251.10;;;122.72;;
53010;SDS011;42803;55.762;38.084;2022-08-25T02:29:55;249.10;;;119.47;;
53010;SDS011;42803;55.762;38.084;2022-08-25T02:32:24;294.50;;;137.88;;
53010;SDS011;42803;55.762;38.084;2022-08-25T02:34:54;179.88;;;83.95;;
53010;SDS011;42803;55.762;38.084;2022-08-25T02:37:23;269.05;;;124.45;;
53010;SDS011;42803;55.762;38.084;2022-08-25T02:39:53;268.40;;;122.28;;
53010;SDS011;42803;55.762;38.084;2022-08-25T02:42:22;293.88;;;137.02;;
53010;SDS011;42803;55.762;38.084;2022-08-25T02:44:51;227.32;;;105.90;;
53010;SDS011;42803;55.762;38.084;2022-08-25T02:47:21;247.23;;;114.93;;
53010;SDS011;42803;55.762;38.084;2022-08-25T02:49:53;223.05;;;104.03;;
53010;SDS011;42803;55.762;38.084;2022-08-25T02:52:22;239.25;;;119.10;;
53010;SDS011;42803;55.762;38.084;2022-08-25T02:54:54;232.23;;;107.80;;
53010;SDS011;42803;55.762;38.084;2022-08-25T02:57:23;150.90;;;71.38;;
53010;SDS011;42803;55.762;38.084;2022-08-25T02:59:52;176.38;;;81.45;;
53010;SDS011;42803;55.762;38.084;2022-08-25T03:02:21;153.68;;;69.57;;
53010;SDS011;42803;55.762;38.084;2022-08-25T03:04:50;127.55;;;55.83;;
53010;SDS011;42803;55.762;38.084;2022-08-25T03:07:21;127.85;;;56.78;;
53010;SDS011;42803;55.762;38.084;2022-08-25T03:09:50;146.35;;;66.22;;
53010;SDS011;42803;55.762;38.084;2022-08-25T03:12:21;127.95;;;59.45;;
53010;SDS011;42803;55.762;38.084;2022-08-25T03:14:50;149.10;;;72.07;;
53010;SDS011;42803;55.762;38.084;2022-08-25T03:17:20;123.32;;;60.25;;
53010;SDS011;42803;55.762;38.084;2022-08-25T03:19:50;158.30;;;70.65;;
53010;SDS011;42803;55.762;38.084;2022-08-25T03:22:19;118.40;;;53.65;;
53010;SDS011;42803;55.762;38.084;2022-08-25T03:24:48;196.52;;;93.05;;
53010;SDS011;42803;55.762;38.084;2022-08-25T03:27:17;203.63;;;99.63;;
53010;SDS011;42803;55.762;38.084;2022-08-25T03:29:46;235.07;;;112.18;;
53010;SDS011;42803;55.762;38.084;2022-08-25T03:32:16;263.02;;;125.63;;
53010;SDS011;42803;55.762;38.084;2022-08-25T03:34:45;258.98;;;124.32;;
53010;SDS011;42803;55.762;38.084;2022-08-25T03:37:14;263.73;;;125.45;;
53010;SDS011;42803;55.762;38.084;2022-08-25T03:39:43;196.38;;;91.05;;
53010;SDS011;42803;55.762;38.084;2022-08-25T03:42:12;181.63;;;85.20;;
53010;SDS011;42803;55.762;38.084;2022-08-25T03:44:41;138.45;;;65.65;;
53010;SDS011;42803;55.762;38.084;2022-08-25T03:47:12;129.27;;;59.92;;
53010;SDS011;42803;55.762;38.084;2022-08-25T03:49:41;140.15;;;63.35;;
53010;SDS011;42803;55.762;38.084;2022-08-25T03:52:10;135.95;;;65.07;;
53010;SDS011;42803;55.762;38.084;2022-08-25T03:54:39;149.18;;;68.40;;
53010;SDS011;42803;55.762;38.084;2022-08-25T03:57:08;231.55;;;115.70;;
53010;SDS011;42803;55.762;38.084;2022-08-25T03:59:38;261.42;;;127.45;;
53010;SDS011;42803;55.762;38.084;2022-08-25T04:02:07;229.25;;;116.43;;
53010;SDS011;42803;55.762;38.084;2022-08-25T04:04:38;174.90;;;86.05;;
53010;SDS011;42803;55.762;38.084;2022-08-25T04:07:07;183.40;;;86.43;;
53010;SDS011;42803;55.762;38.084;2022-08-25T04:09:36;207.88;;;101.22;;
53010;SDS011;42803;55.762;38.084;2022-08-25T04:12:05;176.02;;;91.88;;
53010;SDS011;42803;55.762;38.084;2022-08-25T04:14:35;136.07;;;69.85;;
53010;SDS011;42803;55.762;38.084;2022-08-25T04:17:04;158.10;;;74.88;;
53010;SDS011;42803;55.762;38.084;2022-08-25T04:19:34;152.27;;;69.32;;
53010;SDS011;42803;55.762;38.084;2022-08-25T04:22:05;88.25;;;44.90;;
53010;SDS011;42803;55.762;38.084;2022-08-25T04:24:34;133.82;;;62.30;;
53010;SDS011;42803;55.762;38.084;2022-08-25T04:27:03;127.75;;;59.28;;
53010;SDS011;42803;55.762;38.084;2022-08-25T04:29:33;119.78;;;57.35;;
53010;SDS011;42803;55.762;38.084;2022-08-25T04:32:02;112.30;;;53.95;;
53010;SDS011;42803;55.762;38.084;2022-08-25T04:34:31;107.60;;;53.03;;
53010;SDS011;42803;55.762;38.084;2022-08-25T04:37:01;81.10;;;40.70;;
53010;SDS011;42803;55.762;38.084;2022-08-25T04:39:33;75.65;;;39.65;;
53010;SDS011;42803;55.762;38.084;2022-08-25T04:42:03;83.47;;;37.10;;
53010;SDS011;42803;55.762;38.084;2022-08-25T04:44:32;81.13;;;39.85;;
53010;SDS011;42803;55.762;38.084;2022-08-25T04:47:01;116.70;;;53.28;;
53010;SDS011;42803;55.762;38.084;2022-08-25T04:49:31;83.65;;;41.13;;
53010;SDS011;42803;55.762;38.084;2022-08-25T04:52:00;52.97;;;27.83;;
53010;SDS011;42803;55.762;38.084;2022-08-25T04:54:30;58.90;;;25.75;;
53010;SDS011;42803;55.762;38.084;2022-08-25T04:57:05;45.92;;;25.08;;
53010;SDS011;42803;55.762;38.084;2022-08-25T04:59:34;35.75;;;16.67;;
53010;SDS011;42803;55.762;38.084;2022-08-25T05:02:03;38.70;;;18.65;;
53010;SDS011;42803;55.762;38.084;2022-08-25T05:04:33;46.72;;;21.40;;
53010;SDS011;42803;55.762;38.084;2022-08-25T05:07:03;40.08;;;18.40;;
53010;SDS011;42803;55.762;38.084;2022-08-25T05:09:33;38.08;;;17.98;;
53010;SDS011;42803;55.762;38.084;2022-08-25T05:12:05;49.35;;;19.77;;
53010;SDS011;42803;55.762;38.084;2022-08-25T05:14:37;39.47;;;16.45;;
53010;SDS011;42803;55.762;38.084;2022-08-25T05:17:07;40.10;;;16.98;;
53010;SDS011;42803;55.762;38.084;2022-08-25T05:19:36;26.67;;;10.98;;
53010;SDS011;42803;55.762;38.084;2022-08-25T05:22:05;22.02;;;10.45;;
53010;SDS011;42803;55.762;38.084;2022-08-25T05:24:34;19.00;;;9.02;;
53010;SDS011;42803;55.762;38.084;2022-08-25T05:27:03;21.67;;;8.68;;
53010;SDS011;42803;55.762;38.084;2022-08-25T05:29:33;21.40;;;7.93;;
53010;SDS011;42803;55.762;38.084;2022-08-25T05:32:02;20.95;;;7.60;;
53010;SDS011;42803;55.762;38.084;2022-08-25T05:34:31;13.55;;;6.80;;
53010;SDS011;42803;55.762;38.084;2022-08-25T05:37:00;14.18;;;6.38;;
53010;SDS011;42803;55.762;38.084;2022-08-25T05:39:32;24.15;;;7.18;;
53010;SDS011;42803;55.762;38.084;2022-08-25T05:42:01;18.45;;;7.03;;
53010;SDS011;42803;55.762;38.084;2022-08-25T05:44:32;11.52;;;6.10;;
53010;SDS011;42803;55.762;38.084;2022-08-25T05:47:01;10.35;;;6.68;;
53010;SDS011;42803;55.762;38.084;2022-08-25T05:49:30;14.35;;;6.75;;
53010;SDS011;42803;55.762;38.084;2022-08-25T05:51:59;16.52;;;6.43;;
53010;SDS011;42803;55.762;38.084;2022-08-25T05:54:28;14.57;;;6.93;;
53010;SDS011;42803;55.762;38.084;2022-08-25T05:56:57;19.05;;;6.55;;
53010;SDS011;42803;55.762;38.084;2022-08-25T05:59:28;16.08;;;6.78;;
53010;SDS011;42803;55.762;38.084;2022-08-25T06:01:59;14.45;;;6.78;;
53010;SDS011;42803;55.762;38.084;2022-08-25T06:04:45;14.90;;;6.55;;
53010;SDS011;42803;55.762;38.084;2022-08-25T06:07:14;13.52;;;6.50;;
53010;SDS011;42803;55.762;38.084;2022-08-25T06:09:43;15.32;;;6.95;;
53010;SDS011;42803;55.762;38.084;2022-08-25T06:12:15;11.52;;;6.75;;
53010;SDS011;42803;55.762;38.084;2022-08-25T06:14:47;19.33;;;6.60;;
53010;SDS011;42803;55.762;38.084;2022-08-25T06:17:18;11.80;;;6.35;;
53010;SDS011;42803;55.762;38.084;2022-08-25T06:19:47;16.85;;;6.80;;
53010;SDS011;42803;55.762;38.084;2022-08-25T06:22:16;14.32;;;6.47;;
53010;SDS011;42803;55.762;38.084;2022-08-25T06:24:45;17.73;;;7.63;;
53010;SDS011;42803;55.762;38.084;2022-08-25T06:27:14;14.77;;;6.20;;
53010;SDS011;42803;55.762;38.084;2022-08-25T06:29:43;13.25;;;6.60;;
53010;SDS011;42803;55.762;38.084;2022-08-25T06:32:12;13.88;;;5.90;;
53010;SDS011;42803;55.762;38.084;2022-08-25T06:34:42;9.52;;;6.03;;
53010;SDS011;42803;55.762;38.084;2022-08-25T06:37:11;11.07;;;5.88;;
53010;SDS011;42803;55.762;38.084;2022-08-25T06:39:40;14.38;;;5.93;;
53010;SDS011;42803;55.762;38.084;2022-08-25T06:42:10;11.57;;;5.97;;
53010;SDS011;42803;55.762;38.084;2022-08-25T06:44:39;15.18;;;6.63;;
53010;SDS011;42803;55.762;38.084;2022-08-25T06:47:08;15.18;;;6.35;;
53010;SDS011;42803;55.762;38.084;2022-08-25T06:49:37;10.73;;;5.57;;
53010;SDS011;42803;55.762;38.084;2022-08-25T06:52:07;18.95;;;6.93;;
53010;SDS011;42803;55.762;38.084;2022-08-25T06:54:37;12.00;;;6.07;;
53010;SDS011;42803;55.762;38.084;2022-08-25T06:57:07;18.92;;;6.57;;
53010;SDS011;42803;55.762;38.084;2022-08-25T06:59:36;17.67;;;6.38;;
53010;SDS011;42803;55.762;38.084;2022-08-25T07:02:07;15.85;;;6.25;;
53010;SDS011;42803;55.762;38.084;2022-08-25T07:04:36;19.63;;;6.15;;
53010;SDS011;42803;55.762;38.084;2022-08-25T07:07:05;19.70;;;6.70;;
53010;SDS011;42803;55.762;38.084;2022-08-25T07:09:36;21.45;;;6.70;;
53010;SDS011;42803;55.762;38.084;2022-08-25T07:12:05;18.63;;;6.63;;
53010;SDS011;42803;55.762;38.084;2022-08-25T07:14:35;12.40;;;6.20;;
53010;SDS011;42803;55.762;38.084;2022-08-25T07:17:04;17.23;;;6.55;;
53010;SDS011;42803;55.762;38.084;2022-08-25T07:19:38;15.57;;;6.20;;
53010;SDS011;42803;55.762;38.084;2022-08-25T07:22:09;18.75;;;6.00;;
53010;SDS011;42803;55.762;38.084;2022-08-25T07:24:38;18.35;;;6.53;;
53010;SDS011;42803;55.762;38.084;2022-08-25T07:27:07;13.43;;;6.47;;
53010;SDS011;42803;55.762;38.084;2022-08-25T07:29:37;14.63;;;5.75;;
53010;SDS011;42803;55.762;38.084;2022-08-25T07:32:08;15.15;;;5.93;;
53010;SDS011;42803;55.762;38.084;2022-08-25T07:34:37;15.93;;;5.90;;
53010;SDS011;42803;55.762;38.084;2022-08-25T07:37:25;16.17;;;6.47;;
53010;SDS011;42803;55.762;38.084;2022-08-25T07:40:16;12.85;;;5.60;;
53010;SDS011;42803;55.762;38.084;2022-08-25T07:42:47;14.30;;;6.35;;
53010;SDS011;42803;55.762;38.084;2022-08-25T07:45:17;17.27;;;5.82;;
53010;SDS011;42803;55.762;38.084;2022-08-25T07:47:47;13.20;;;5.75;;
53010;SDS011;42803;55.762;38.084;2022-08-25T07:50:20;14.25;;;6.15;;
53010;SDS011;42803;55.762;38.084;2022-08-25T07:52:50;18.77;;;6.43;;
53010;SDS011;42803;55.762;38.084;2022-08-25T07:55:21;7.68;;;5.32;;
53010;SDS011;42803;55.762;38.084;2022-08-25T07:57:51;7.38;;;5.05;;
53010;SDS011;42803;55.762;38.084;2022-08-25T08:00:38;8.50;;;4.82;;
53010;SDS011;42803;55.762;38.084;2022-08-25T08:03:08;12.00;;;4.90;;
53010;SDS011;42803;55.762;38.084;2022-08-25T08:05:57;14.18;;;5.60;;
53010;SDS011;42803;55.762;38.084;2022-08-25T08:08:28;9.18;;;5.47;;
53010;SDS011;42803;55.762;38.084;2022-08-25T08:10:58;10.43;;;4.97;;
53010;SDS011;42803;55.762;38.084;2022-08-25T08:13:31;9.18;;;5.40;;
53010;SDS011;42803;55.762;38.084;2022-08-25T08:16:07;12.18;;;5.38;;
53010;SDS011;42803;55.762;38.084;2022-08-25T08:18:39;7.43;;;5.28;;
53010;SDS011;42803;55.762;38.084;2022-08-25T08:21:10;13.65;;;5.43;;
53010;SDS011;42803;55.762;38.084;2022-08-25T08:23:47;10.15;;;4.53;;
53010;SDS011;42803;55.762;38.084;2022-08-25T08:26:24;8.57;;;5.18;;
53010;SDS011;42803;55.762;38.084;2022-08-25T08:29:14;9.82;;;4.53;;
53010;SDS011;42803;55.762;38.084;2022-08-25T08:31:43;10.45;;;5.50;;
53010;SDS011;42803;55.762;38.084;2022-08-25T08:34:15;6.53;;;4.40;;
53010;SDS011;42803;55.762;38.084;2022-08-25T08:36:44;10.93;;;4.55;;
53010;SDS011;42803;55.762;38.084;2022-08-25T08:39:15;6.57;;;4.63;;
53010;SDS011;42803;55.762;38.084;2022-08-25T08:41:47;8.45;;;4.32;;
53010;SDS011;42803;55.762;38.084;2022-08-25T08:45:03;7.15;;;4.18;;
53010;SDS011;42803;55.762;38.084;2022-08-25T08:47:53;7.95;;;4.13;;
53010;SDS011;42803;55.762;38.084;2022-08-25T08:50:33;10.30;;;4.18;;
53010;SDS011;42803;55.762;38.084;2022-08-25T08:53:12;5.43;;;4.43;;
53010;SDS011;42803;55.762;38.084;2022-08-25T08:55:50;8.05;;;4.20;;
53010;SDS011;42803;55.762;38.084;2022-08-25T08:58:22;9.57;;;4.40;;
53010;SDS011;42803;55.762;38.084;2022-08-25T09:00:55;7.67;;;4.20;;
53010;SDS011;42803;55.762;38.084;2022-08-25T09:03:28;11.50;;;3.90;;
53010;SDS011;42803;55.762;38.084;2022-08-25T09:06:06;5.90;;;3.85;;
53010;SDS011;42803;55.762;38.084;2022-08-25T09:08:39;6.10;;;3.88;;
53010;SDS011;42803;55.762;38.084;2022-08-25T09:11:14;8.30;;;4.32;;
53010;SDS011;42803;55.762;38.084;2022-08-25T09:13:59;6.55;;;4.18;;
53010;SDS011;42803;55.762;38.084;2022-08-25T09:16:38;7.55;;;4.30;;
53010;SDS011;42803;55.762;38.084;2022-08-25T09:19:31;4.15;;;3.67;;
53010;SDS011;42803;55.762;38.084;2022-08-25T09:22:13;4.00;;;3.60;;
53010;SDS011;42803;55.762;38.084;2022-08-25T09:25:05;6.32;;;3.85;;
53010;SDS011;42803;55.762;38.084;2022-08-25T09:27:52;6.80;;;3.90;;
53010;SDS011;42803;55.762;38.084;2022-08-25T09:30:39;6.43;;;3.70;;
53010;SDS011;42803;55.762;38.084;2022-08-25T09:33:14;13.55;;;4.22;;
53010;SDS011;42803;55.762;38.084;2022-08-25T09:35:47;7.25;;;4.00;;
53010;SDS011;42803;55.762;38.084;2022-08-25T09:38:19;8.80;;;4.13;;
53010;SDS011;42803;55.762;38.084;2022-08-25T09:40:52;7.43;;;4.22;;
53010;SDS011;42803;55.762;38.084;2022-08-25T09:43:30;5.28;;;3.78;;
53010;SDS011;42803;55.762;38.084;2022-08-25T09:46:01;9.52;;;3.97;;
53010;SDS011;42803;55.762;38.084;2022-08-25T09:48:42;7.57;;;3.90;;
53010;SDS011;42803;55.762;38.084;2022-08-25T09:51:23;5.75;;;3.90;;
53010;SDS011;42803;55.762;38.084;2022-08-25T09:53:58;4.13;;;3.70;;
53010;SDS011;42803;55.762;38.084;2022-08-25T09:56:45;4.97;;;3.53;;
53010;SDS011;42803;55.762;38.084;2022-08-25T09:59:20;5.85;;;3.53;;
53010;SDS011;42803;55.762;38.084;2022-08-25T10:02:02;5.47;;;3.53;;
53010;SDS011;42803;55.762;38.084;2022-08-25T10:04:42;5.57;;;3.75;;
53010;SDS011;42803;55.762;38.084;2022-08-25T10:07:18;6.10;;;4.22;;
53010;SDS011;42803;55.762;38.084;2022-08-25T10:09:51;8.68;;;3.85;;
53010;SDS011;42803;55.762;38.084;2022-08-25T10:12:24;5.05;;;3.78;;
53010;SDS011;42803;55.762;38.084;2022-08-25T10:15:01;7.40;;;3.90;;
53010;SDS011;42803;55.762;38.084;2022-08-25T10:18:00;6.82;;;4.20;;
53010;SDS011;42803;55.762;38.084;2022-08-25T10:21:00;9.77;;;4.00;;
53010;SDS011;42803;55.762;38.084;2022-08-25T10:23:35;8.07;;;3.80;;
53010;SDS011;42803;55.762;38.084;2022-08-25T10:26:09;4.93;;;4.03;;
53010;SDS011;42803;55.762;38.084;2022-08-25T10:28:46;5.00;;;3.72;;
53010;SDS011;42803;55.762;38.084;2022-08-25T10:31:28;5.95;;;4.15;;
53010;SDS011;42803;55.762;38.084;2022-08-25T10:34:14;6.20;;;4.30;;
53010;SDS011;42803;55.762;38.084;2022-08-25T10:37:04;7.33;;;3.60;;
53010;SDS011;42803;55.762;38.084;2022-08-25T10:39:49;7.55;;;3.95;;
53010;SDS011;42803;55.762;38.084;2022-08-25T10:42:29;8.60;;;4.13;;
53010;SDS011;42803;55.762;38.084;2022-08-25T10:45:13;8.57;;;4.38;;
53010;SDS011;42803;55.762;38.084;2022-08-25T10:48:31;8.57;;;4.40;;
53010;SDS011;42803;55.762;38.084;2022-08-25T10:51:28;6.43;;;4.28;;
53010;SDS011;42803;55.762;38.084;2022-08-25T10:54:05;6.10;;;4.15;;
53010;SDS011;42803;55.762;38.084;2022-08-25T10:56:42;5.80;;;3.70;;
53010;SDS011;42803;55.762;38.084;2022-08-25T10:59:22;4.68;;;3.67;;
53010;SDS011;42803;55.762;38.084;2022-08-25T11:02:11;6.07;;;4.20;;
53010;SDS011;42803;55.762;38.084;2022-08-25T11:05:01;9.48;;;4.03;;
53010;SDS011;42803;55.762;38.084;2022-08-25T11:07:36;6.82;;;4.15;;
53010;SDS011;42803;55.762;38.084;2022-08-25T11:10:10;7.82;;;4.15;;
53010;SDS011;42803;55.762;38.084;2022-08-25T11:12:42;9.10;;;4.07;;
53010;SDS011;42803;55.762;38.084;2022-08-25T11:15:16;6.22;;;4.03;;
53010;SDS011;42803;55.762;38.084;2022-08-25T11:17:50;5.20;;;4.43;;
53010;SDS011;42803;55.762;38.084;2022-08-25T11:20:23;5.93;;;4.20;;
53010;SDS011;42803;55.762;38.084;2022-08-25T11:23:04;6.72;;;4.10;;
53010;SDS011;42803;55.762;38.084;2022-08-25T11:25:40;13.23;;;4.57;;
53010;SDS011;42803;55.762;38.084;2022-08-25T11:28:11;5.00;;;4.05;;
53010;SDS011;42803;55.762;38.084;2022-08-25T11:30:48;8.55;;;4.35;;
53010;SDS011;42803;55.762;38.084;2022-08-25T11:33:20;6.25;;;4.32;;
53010;SDS011;42803;55.762;38.084;2022-08-25T11:35:54;5.13;;;4.40;;
53010;SDS011;42803;55.762;38.084;2022-08-25T11:38:31;6.47;;;4.07;;
53010;SDS011;42803;55.762;38.084;2022-08-25T11:41:17;11.77;;;4.47;;
53010;SDS011;42803;55.762;38.084;2022-08-25T11:44:00;6.90;;;4.78;;
53010;SDS011;42803;55.762;38.084;2022-08-25T11:46:45;6.97;;;4.53;;
53010;SDS011;42803;55.762;38.084;2022-08-25T11:49:28;6.68;;;4.95;;
53010;SDS011;42803;55.762;38.084;2022-08-25T11:55:13;9.20;;;4.60;;
53010;SDS011;42803;55.762;38.084;2022-08-25T11:57:49;12.02;;;5.95;;
53010;SDS011;42803;55.762;38.084;2022-08-25T12:06:23;10.23;;;5.05;;
53010;SDS011;42803;55.762;38.084;2022-08-25T12:11:48;12.32;;;5.80;;
53010;SDS011;42803;55.762;38.084;2022-08-25T12:17:22;10.98;;;5.10;;
53010;SDS011;42803;55.762;38.084;2022-08-25T12:19:55;8.85;;;5.28;;
53010;SDS011;42803;55.762;38.084;2022-08-25T12:22:39;6.90;;;4.90;;
53010;SDS011;42803;55.762;38.084;2022-08-25T12:25:27;9.05;;;4.82;;
53010;SDS011;42803;55.762;38.084;2022-08-25T12:28:16;8.55;;;4.93;;
53010;SDS011;42803;55.762;38.084;2022-08-25T12:31:10;7.10;;;4.95;;
53010;SDS011;42803;55.762;38.084;2022-08-25T12:34:00;8.98;;;5.45;;
53010;SDS011;42803;55.762;38.084;2022-08-25T12:36:53;10.90;;;6.32;;
53010;SDS011;42803;55.762;38.084;2022-08-25T12:39:28;7.10;;;5.15;;
53010;SDS011;42803;55.762;38.084;2022-08-25T12:42:01;14.18;;;5.63;;
53010;SDS011;42803;55.762;38.084;2022-08-25T12:44:38;7.03;;;5.10;;
53010;SDS011;42803;55.762;38.084;2022-08-25T12:47:12;15.27;;;10.55;;
53010;SDS011;42803;55.762;38.084;2022-08-25T12:53:14;7.03;;;5.00;;
53010;SDS011;42803;55.762;38.084;2022-08-25T12:55:53;7.57;;;5.00;;
53010;SDS011;42803;55.762;38.084;2022-08-25T12:58:33;7.13;;;4.63;;
53010;SDS011;42803;55.762;38.084;2022-08-25T13:01:32;4.72;;;4.15;;
53010;SDS011;42803;55.762;38.084;2022-08-25T13:04:21;8.80;;;5.05;;
53010;SDS011;42803;55.762;38.084;2022-08-25T13:07:16;7.75;;;5.60;;
53010;SDS011;42803;55.762;38.084;2022-08-25T13:10:09;6.47;;;5.45;;
53010;SDS011;42803;55.762;38.084;2022-08-25T13:12:57;8.50;;;5.80;;
53010;SDS011;42803;55.762;38.084;2022-08-25T13:15:37;16.23;;;6.28;;
53010;SDS011;42803;55.762;38.084;2022-08-25T13:18:14;11.48;;;6.38;;
53010;SDS011;42803;55.762;38.084;2022-08-25T13:20:47;12.82;;;7.25;;
53010;SDS011;42803;55.762;38.084;2022-08-25T13:23:18;7.18;;;5.03;;
53010;SDS011;42803;55.762;38.084;2022-08-25T13:25:55;8.27;;;5.45;;
53010;SDS011;42803;55.762;38.084;2022-08-25T13:28:27;8.02;;;5.22;;
53010;SDS011;42803;55.762;38.084;2022-08-25T13:31:00;12.82;;;5.50;;
53010;SDS011;42803;55.762;38.084;2022-08-25T13:33:32;12.52;;;5.78;;
53010;SDS011;42803;55.762;38.084;2022-08-25T13:36:02;9.77;;;5.40;;
53010;SDS011;42803;55.762;38.084;2022-08-25T13:38:50;8.00;;;5.13;;
53010;SDS011;42803;55.762;38.084;2022-08-25T13:41:21;7.00;;;5.13;;
53010;SDS011;42803;55.762;38.084;2022-08-25T13:43:55;9.88;;;5.75;;
53010;SDS011;42803;55.762;38.084;2022-08-25T13:46:29;9.45;;;6.18;;
53010;SDS011;42803;55.762;38.084;2022-08-25T13:49:02;9.55;;;5.43;;
53010;SDS011;42803;55.762;38.084;2022-08-25T13:51:35;10.68;;;5.50;;
53010;SDS011;42803;55.762;38.084;2022-08-25T13:54:19;9.95;;;5.95;;
53010;SDS011;42803;55.762;38.084;2022-08-25T13:56:53;10.88;;;5.90;;
53010;SDS011;42803;55.762;38.084;2022-08-25T13:59:34;8.65;;;5.57;;
53010;SDS011;42803;55.762;38.084;2022-08-25T14:02:08;8.27;;;5.50;;
53010;SDS011;42803;55.762;38.084;2022-08-25T14:04:46;6.35;;;5.20;;
53010;SDS011;42803;55.762;38.084;2022-08-25T14:07:25;12.50;;;5.60;;
53010;SDS011;42803;55.762;38.084;2022-08-25T14:10:01;12.38;;;5.70;;
53010;SDS011;42803;55.762;38.084;2022-08-25T14:12:37;8.57;;;4.93;;
53010;SDS011;42803;55.762;38.084;2022-08-25T14:15:14;7.68;;;5.35;;
53010;SDS011;42803;55.762;38.084;2022-08-25T14:18:01;9.18;;;5.57;;
53010;SDS011;42803;55.762;38.084;2022-08-25T14:20:33;11.52;;;6.68;;
53010;SDS011;42803;55.762;38.084;2022-08-25T14:23:08;11.38;;;6.15;;
53010;SDS011;42803;55.762;38.084;2022-08-25T14:25:45;8.65;;;5.15;;
53010;SDS011;42803;55.762;38.084;2022-08-25T14:28:16;13.57;;;5.65;;
53010;SDS011;42803;55.762;38.084;2022-08-25T14:30:48;7.82;;;5.35;;
53010;SDS011;42803;55.762;38.084;2022-08-25T14:33:21;12.35;;;5.63;;
53010;SDS011;42803;55.762;38.084;2022-08-25T14:35:53;7.47;;;5.45;;
53010;SDS011;42803;55.762;38.084;2022-08-25T14:38:25;11.25;;;5.30;;
53010;SDS011;42803;55.762;38.084;2022-08-25T14:40:54;10.07;;;5.72;;
53010;SDS011;42803;55.762;38.084;2022-08-25T14:43:25;6.75;;;5.35;;
53010;SDS011;42803;55.762;38.084;2022-08-25T14:45:58;8.23;;;5.05;;
53010;SDS011;42803;55.762;38.084;2022-08-25T14:48:32;7.57;;;5.50;;
53010;SDS011;42803;55.762;38.084;2022-08-25T14:51:08;8.65;;;5.47;;
53010;SDS011;42803;55.762;38.084;2022-08-25T14:53:39;11.10;;;5.63;;
53010;SDS011;42803;55.762;38.084;2022-08-25T14:56:09;8.88;;;5.05;;
53010;SDS011;42803;55.762;38.084;2022-08-25T14:58:40;8.40;;;5.53;;
53010;SDS011;42803;55.762;38.084;2022-08-25T15:01:20;7.03;;;4.95;;
53010;SDS011;42803;55.762;38.084;2022-08-25T15:03:59;8.38;;;5.47;;
53010;SDS011;42803;55.762;38.084;2022-08-25T15:06:30;8.98;;;5.07;;
53010;SDS011;42803;55.762;38.084;2022-08-25T15:09:01;11.15;;;5.78;;
53010;SDS011;42803;55.762;38.084;2022-08-25T15:11:38;11.35;;;5.68;;